sensor_id;sensor_type;location;lat;lon;timestamp;pressure;altitude;pressure_sealevel;temperature;humidity
71772;BME280;59606;52.138;5.424;2022-08-19T00:01:51;101470.66;;;19.12;79.21
71772;BME280;59606;52.138;5.424;2022-08-19T00:04:22;101468.63;;;19.04;78.92
71772;BME280;59606;52.138;5.424;2022-08-19T00:06:51;101466.47;;;18.98;78.69
71772;BME280;59606;52.138;5.424;2022-08-19T00:09:20;101475.13;;;19.00;78.90
71772;BME280;59606;52.138;5.424;2022-08-19T00:11:47;101473.44;;;18.99;79.08
71772;BME280;59606;52.138;5.424;2022-08-19T00:14:16;101476.31;;;18.96;79.12
71772;BME280;59606;52.138;5.424;2022-08-19T00:16:45;101477.53;;;18.92;79.34
71772;BME280;59606;52.138;5.424;2022-08-19T00:19:12;101483.91;;;18.89;79.17
71772;BME280;59606;52.138;5.424;2022-08-19T00:21:38;101477.28;;;18.83;79.07
71772;BME280;59606;52.138;5.424;2022-08-19T00:24:10;101478.50;;;18.79;78.75
71772;BME280;59606;52.138;5.424;2022-08-19T00:26:38;101476.09;;;18.76;79.00
71772;BME280;59606;52.138;5.424;2022-08-19T00:29:06;101471.91;;;18.74;79.13
71772;BME280;59606;52.138;5.424;2022-08-19T00:31:33;101466.84;;;18.71;79.00
71772;BME280;59606;52.138;5.424;2022-08-19T00:34:00;101470.81;;;18.65;78.93
71772;BME280;59606;52.138;5.424;2022-08-19T00:36:26;101469.13;;;18.64;79.26
71772;BME280;59606;52.138;5.424;2022-08-19T00:38:55;101475.50;;;18.61;79.07
71772;BME280;59606;52.138;5.424;2022-08-19T00:41:23;101471.41;;;18.57;78.93
71772;BME280;59606;52.138;5.424;2022-08-19T00:44:04;101464.34;;;18.58;79.31
71772;BME280;59606;52.138;5.424;2022-08-19T00:46:32;101463.63;;;18.56;79.29
71772;BME280;59606;52.138;5.424;2022-08-19T00:49:00;101465.66;;;18.52;79.11
71772;BME280;59606;52.138;5.424;2022-08-19T00:51:30;101465.91;;;18.49;79.55
71772;BME280;59606;52.138;5.424;2022-08-19T00:53:58;101465.16;;;18.47;79.75
71772;BME280;59606;52.138;5.424;2022-08-19T00:56:27;101468.03;;;18.44;79.83
71772;BME280;59606;52.138;5.424;2022-08-19T00:58:56;101463.88;;;18.42;79.96
71772;BME280;59606;52.138;5.424;2022-08-19T01:01:23;101461.47;;;18.38;79.99
71772;BME280;59606;52.138;5.424;2022-08-19T01:03:50;101462.66;;;18.34;79.86
71772;BME280;59606;52.138;5.424;2022-08-19T01:06:25;101459.28;;;18.32;79.95
71772;BME280;59606;52.138;5.424;2022-08-19T01:08:52;101468.28;;;18.30;79.33
71772;BME280;59606;52.138;5.424;2022-08-19T01:11:19;101472.00;;;18.27;79.59
71772;BME280;59606;52.138;5.424;2022-08-19T01:13:46;101470.31;;;18.26;80.01
71772;BME280;59606;52.138;5.424;2022-08-19T01:16:16;101466.97;;;18.24;79.99
71772;BME280;59606;52.138;5.424;2022-08-19T01:18:43;101462.88;;;18.20;79.72
71772;BME280;59606;52.138;5.424;2022-08-19T01:21:31;101462.03;;;18.20;79.69
71772;BME280;59606;52.138;5.424;2022-08-19T01:23:58;101461.56;;;18.14;79.74
71772;BME280;59606;52.138;5.424;2022-08-19T01:26:26;101458.31;;;18.11;80.18
71772;BME280;59606;52.138;5.424;2022-08-19T01:28:55;101460.97;;;18.11;80.04
71772;BME280;59606;52.138;5.424;2022-08-19T01:31:28;101467.31;;;18.08;79.74
71772;BME280;59606;52.138;5.424;2022-08-19T01:33:59;101463.09;;;18.06;80.27
71772;BME280;59606;52.138;5.424;2022-08-19T01:36:30;101470.16;;;18.05;80.23
71772;BME280;59606;52.138;5.424;2022-08-19T01:38:57;101471.25;;;18.03;80.38
71772;BME280;59606;52.138;5.424;2022-08-19T01:41:25;101467.78;;;18.02;80.33
71772;BME280;59606;52.138;5.424;2022-08-19T01:43:52;101474.09;;;18.00;80.51
71772;BME280;59606;52.138;5.424;2022-08-19T01:46:40;101473.72;;;17.93;80.69
71772;BME280;59606;52.138;5.424;2022-08-19T01:49:07;101466.78;;;17.92;80.75
71772;BME280;59606;52.138;5.424;2022-08-19T01:51:34;101466.88;;;17.90;81.16
71772;BME280;59606;52.138;5.424;2022-08-19T01:54:06;101462.72;;;17.88;81.15
71772;BME280;59606;52.138;5.424;2022-08-19T01:56:36;101466.50;;;17.84;80.93
71772;BME280;59606;52.138;5.424;2022-08-19T01:59:05;101473.72;;;17.82;80.93
71772;BME280;59606;52.138;5.424;2022-08-19T02:01:34;101474.91;;;17.78;80.90
71772;BME280;59606;52.138;5.424;2022-08-19T02:04:01;101474.13;;;17.76;81.15
71772;BME280;59606;52.138;5.424;2022-08-19T02:06:28;101468.25;;;17.72;80.51
71772;BME280;59606;52.138;5.424;2022-08-19T02:08:55;101466.59;;;17.71;80.83
71772;BME280;59606;52.138;5.424;2022-08-19T02:11:33;101466.69;;;17.70;80.71
71772;BME280;59606;52.138;5.424;2022-08-19T02:14:02;101466.91;;;17.66;80.80
71772;BME280;59606;52.138;5.424;2022-08-19T02:16:29;101469.91;;;17.62;80.93
71772;BME280;59606;52.138;5.424;2022-08-19T02:18:57;101474.44;;;17.60;80.85
71772;BME280;59606;52.138;5.424;2022-08-19T02:21:27;101479.09;;;17.56;80.96
71772;BME280;59606;52.138;5.424;2022-08-19T02:23:54;101464.34;;;17.54;81.22
71772;BME280;59606;52.138;5.424;2022-08-19T02:26:21;101472.25;;;17.54;81.19
71772;BME280;59606;52.138;5.424;2022-08-19T02:28:48;101469.13;;;17.49;80.95
71772;BME280;59606;52.138;5.424;2022-08-19T02:31:18;101477.38;;;17.44;81.06
71772;BME280;59606;52.138;5.424;2022-08-19T02:33:45;101476.50;;;17.43;80.99
71772;BME280;59606;52.138;5.424;2022-08-19T02:36:13;101487.31;;;17.40;81.13
71772;BME280;59606;52.138;5.424;2022-08-19T02:38:41;101486.44;;;17.40;81.26
71772;BME280;59606;52.138;5.424;2022-08-19T02:41:18;101493.63;;;17.38;81.10
71772;BME280;59606;52.138;5.424;2022-08-19T02:43:46;101492.66;;;17.39;80.99
71772;BME280;59606;52.138;5.424;2022-08-19T02:46:33;101497.31;;;17.35;81.37
71772;BME280;59606;52.138;5.424;2022-08-19T02:49:02;101499.34;;;17.32;81.34
71772;BME280;59606;52.138;5.424;2022-08-19T02:51:32;101494.41;;;17.27;81.41
71772;BME280;59606;52.138;5.424;2022-08-19T02:54:00;101491.16;;;17.24;81.71
71772;BME280;59606;52.138;5.424;2022-08-19T02:56:26;101495.69;;;17.22;81.82
71772;BME280;59606;52.138;5.424;2022-08-19T02:58:55;101491.25;;;17.22;81.90
71772;BME280;59606;52.138;5.424;2022-08-19T03:01:28;101492.22;;;17.21;81.44
71772;BME280;59606;52.138;5.424;2022-08-19T03:03:56;101499.38;;;17.19;81.82
71772;BME280;59606;52.138;5.424;2022-08-19T03:06:23;101505.69;;;17.16;81.71
71772;BME280;59606;52.138;5.424;2022-08-19T03:08:50;101506.66;;;17.15;81.54
71772;BME280;59606;52.138;5.424;2022-08-19T03:11:28;101491.00;;;17.14;81.69
71772;BME280;59606;52.138;5.424;2022-08-19T03:13:56;101490.25;;;17.12;81.56
71772;BME280;59606;52.138;5.424;2022-08-19T03:16:25;101484.38;;;17.08;81.13
71772;BME280;59606;52.138;5.424;2022-08-19T03:18:53;101486.25;;;17.06;81.22
71772;BME280;59606;52.138;5.424;2022-08-19T03:21:23;101475.00;;;17.04;81.56
71772;BME280;59606;52.138;5.424;2022-08-19T03:23:53;101473.31;;;17.03;81.69
71772;BME280;59606;52.138;5.424;2022-08-19T03:26:20;101481.31;;;17.02;81.60
71772;BME280;59606;52.138;5.424;2022-08-19T03:28:47;101483.00;;;17.03;81.46
71772;BME280;59606;52.138;5.424;2022-08-19T03:31:23;101476.19;;;17.00;81.17
71772;BME280;59606;52.138;5.424;2022-08-19T03:34:15;101475.44;;;16.98;81.46
71772;BME280;59606;52.138;5.424;2022-08-19T03:36:43;101472.06;;;16.96;82.07
71772;BME280;59606;52.138;5.424;2022-08-19T03:39:10;101481.16;;;16.92;81.99
71772;BME280;59606;52.138;5.424;2022-08-19T03:41:40;101483.03;;;16.90;82.07
71772;BME280;59606;52.138;5.424;2022-08-19T03:44:17;101485.03;;;16.86;82.18
71772;BME280;59606;52.138;5.424;2022-08-19T03:46:52;101486.13;;;16.84;82.47
71772;BME280;59606;52.138;5.424;2022-08-19T03:49:22;101493.91;;;16.85;82.49
71772;BME280;59606;52.138;5.424;2022-08-19T03:51:55;101487.88;;;16.83;82.36
71772;BME280;59606;52.138;5.424;2022-08-19T03:54:24;101477.38;;;16.83;82.26
71772;BME280;59606;52.138;5.424;2022-08-19T03:56:52;101478.31;;;16.82;82.31
71772;BME280;59606;52.138;5.424;2022-08-19T03:59:31;101468.13;;;16.78;82.40
71772;BME280;59606;52.138;5.424;2022-08-19T04:02:00;101479.59;;;16.77;82.54
71772;BME280;59606;52.138;5.424;2022-08-19T04:04:28;101481.50;;;16.75;82.86
71772;BME280;59606;52.138;5.424;2022-08-19T04:06:57;101476.25;;;16.75;82.99
71772;BME280;59606;52.138;5.424;2022-08-19T04:09:23;101478.94;;;16.73;82.98
71772;BME280;59606;52.138;5.424;2022-08-19T04:11:52;101471.91;;;16.73;83.18
71772;BME280;59606;52.138;5.424;2022-08-19T04:14:24;101464.94;;;16.72;83.67
71772;BME280;59606;52.138;5.424;2022-08-19T04:16:52;101456.53;;;16.67;83.59
71772;BME280;59606;52.138;5.424;2022-08-19T04:19:19;101460.34;;;16.63;83.99
71772;BME280;59606;52.138;5.424;2022-08-19T04:21:47;101460.78;;;16.57;84.29
71772;BME280;59606;52.138;5.424;2022-08-19T04:24:15;101467.84;;;16.57;84.54
71772;BME280;59606;52.138;5.424;2022-08-19T04:26:42;101460.78;;;16.57;84.55
71772;BME280;59606;52.138;5.424;2022-08-19T04:29:15;101466.97;;;16.56;84.44
71772;BME280;59606;52.138;5.424;2022-08-19T04:31:42;101465.06;;;16.58;84.35
71772;BME280;59606;52.138;5.424;2022-08-19T04:34:13;101455.94;;;16.51;84.44
71772;BME280;59606;52.138;5.424;2022-08-19T04:36:42;101469.19;;;16.49;85.01
71772;BME280;59606;52.138;5.424;2022-08-19T04:39:16;101461.28;;;16.49;85.13
71772;BME280;59606;52.138;5.424;2022-08-19T04:41:43;101471.72;;;16.51;85.19
71772;BME280;59606;52.138;5.424;2022-08-19T04:44:34;101467.72;;;16.45;85.48
71772;BME280;59606;52.138;5.424;2022-08-19T04:47:02;101461.13;;;16.40;85.64
71772;BME280;59606;52.138;5.424;2022-08-19T04:49:36;101464.38;;;16.43;85.78
71772;BME280;59606;52.138;5.424;2022-08-19T04:52:03;101460.56;;;16.47;85.63
71772;BME280;59606;52.138;5.424;2022-08-19T04:54:29;101463.91;;;16.49;85.48
71772;BME280;59606;52.138;5.424;2022-08-19T04:57:06;101465.41;;;16.54;85.26
71772;BME280;59606;52.138;5.424;2022-08-19T04:59:35;101466.25;;;16.54;85.25
71772;BME280;59606;52.138;5.424;2022-08-19T05:02:03;101461.19;;;16.51;85.32
71772;BME280;59606;52.138;5.424;2022-08-19T05:04:30;101464.88;;;16.48;85.60
71772;BME280;59606;52.138;5.424;2022-08-19T05:06:59;101464.88;;;16.48;85.53
71772;BME280;59606;52.138;5.424;2022-08-19T05:09:28;101474.56;;;16.48;85.79
71772;BME280;59606;52.138;5.424;2022-08-19T05:12:14;101478.97;;;16.47;85.87
71772;BME280;59606;52.138;5.424;2022-08-19T05:14:42;101484.03;;;16.50;86.01
71772;BME280;59606;52.138;5.424;2022-08-19T05:17:08;101482.25;;;16.51;85.74
71772;BME280;59606;52.138;5.424;2022-08-19T05:19:58;101480.78;;;16.47;85.70
71772;BME280;59606;52.138;5.424;2022-08-19T05:22:46;101485.50;;;16.42;85.75
71772;BME280;59606;52.138;5.424;2022-08-19T05:25:17;101487.19;;;16.43;85.78
71772;BME280;59606;52.138;5.424;2022-08-19T05:27:46;101485.84;;;16.50;85.43
71772;BME280;59606;52.138;5.424;2022-08-19T05:30:13;101483.91;;;16.65;85.33
71772;BME280;59606;52.138;5.424;2022-08-19T05:32:40;101488.75;;;16.84;84.71
71772;BME280;59606;52.138;5.424;2022-08-19T05:35:08;101485.72;;;17.14;83.88
71772;BME280;59606;52.138;5.424;2022-08-19T05:37:35;101480.16;;;17.54;82.63
71772;BME280;59606;52.138;5.424;2022-08-19T05:40:03;101471.69;;;17.97;81.09
71772;BME280;59606;52.138;5.424;2022-08-19T05:42:30;101480.16;;;18.35;79.75
71772;BME280;59606;52.138;5.424;2022-08-19T05:44:56;101484.41;;;18.72;78.54
71772;BME280;59606;52.138;5.424;2022-08-19T05:47:23;101487.13;;;18.93;78.02
71772;BME280;59606;52.138;5.424;2022-08-19T05:49:49;101492.53;;;19.02;77.66
71772;BME280;59606;52.138;5.424;2022-08-19T05:52:18;101482.66;;;19.04;77.79
71772;BME280;59606;52.138;5.424;2022-08-19T05:54:51;101485.78;;;19.10;78.08
71772;BME280;59606;52.138;5.424;2022-08-19T05:57:20;101480.16;;;19.03;78.44
71772;BME280;59606;52.138;5.424;2022-08-19T05:59:47;101476.09;;;18.88;78.74
71772;BME280;59606;52.138;5.424;2022-08-19T06:02:25;101479.22;;;18.59;80.22
71772;BME280;59606;52.138;5.424;2022-08-19T06:04:52;101469.97;;;18.31;81.42
71772;BME280;59606;52.138;5.424;2022-08-19T06:07:18;101484.94;;;18.08;82.65
71772;BME280;59606;52.138;5.424;2022-08-19T06:09:45;101484.78;;;17.98;83.71
71772;BME280;59606;52.138;5.424;2022-08-19T06:12:26;101486.91;;;17.93;84.56
71772;BME280;59606;52.138;5.424;2022-08-19T06:14:59;101477.34;;;17.92;84.55
71772;BME280;59606;52.138;5.424;2022-08-19T06:17:28;101484.19;;;17.95;84.89
71772;BME280;59606;52.138;5.424;2022-08-19T06:19:57;101483.81;;;17.99;85.52
71772;BME280;59606;52.138;5.424;2022-08-19T06:22:24;101485.25;;;18.03;85.22
71772;BME280;59606;52.138;5.424;2022-08-19T06:24:50;101481.69;;;18.04;85.69
71772;BME280;59606;52.138;5.424;2022-08-19T06:27:19;101482.06;;;18.11;85.96
71772;BME280;59606;52.138;5.424;2022-08-19T06:29:46;101472.50;;;18.21;86.04
71772;BME280;59606;52.138;5.424;2022-08-19T06:32:15;101477.41;;;18.26;86.38
71772;BME280;59606;52.138;5.424;2022-08-19T06:34:42;101481.22;;;18.33;86.20
71772;BME280;59606;52.138;5.424;2022-08-19T06:37:09;101482.19;;;18.43;86.51
71772;BME280;59606;52.138;5.424;2022-08-19T06:39:37;101490.38;;;18.51;86.68
71772;BME280;59606;52.138;5.424;2022-08-19T06:42:06;101489.88;;;18.57;86.25
71772;BME280;59606;52.138;5.424;2022-08-19T06:44:38;101492.41;;;18.59;86.32
71772;BME280;59606;52.138;5.424;2022-08-19T06:47:11;101485.56;;;18.68;87.06
71772;BME280;59606;52.138;5.424;2022-08-19T06:49:41;101486.91;;;18.73;86.13
71772;BME280;59606;52.138;5.424;2022-08-19T06:52:08;101484.25;;;18.73;86.59
71772;BME280;59606;52.138;5.424;2022-08-19T06:54:40;101492.78;;;18.77;86.46
71772;BME280;59606;52.138;5.424;2022-08-19T06:57:22;101493.38;;;18.80;86.82
71772;BME280;59606;52.138;5.424;2022-08-19T06:59:49;101490.88;;;18.79;86.50
71772;BME280;59606;52.138;5.424;2022-08-19T07:02:15;101481.13;;;18.68;86.95
71772;BME280;59606;52.138;5.424;2022-08-19T07:04:47;101492.75;;;18.66;87.15
71772;BME280;59606;52.138;5.424;2022-08-19T07:07:18;101497.44;;;18.62;87.52
71772;BME280;59606;52.138;5.424;2022-08-19T07:09:48;101500.69;;;18.66;87.62
71772;BME280;59606;52.138;5.424;2022-08-19T07:12:28;101505.81;;;18.67;87.75
71772;BME280;59606;52.138;5.424;2022-08-19T07:14:56;101501.91;;;18.73;87.39
71772;BME280;59606;52.138;5.424;2022-08-19T07:17:23;101495.56;;;18.75;87.41
71772;BME280;59606;52.138;5.424;2022-08-19T07:19:50;101499.16;;;18.86;87.77
71772;BME280;59606;52.138;5.424;2022-08-19T07:22:20;101506.59;;;18.92;86.94
71772;BME280;59606;52.138;5.424;2022-08-19T07:24:50;101510.91;;;18.93;86.95
71772;BME280;59606;52.138;5.424;2022-08-19T07:27:18;101512.81;;;18.91;86.20
71772;BME280;59606;52.138;5.424;2022-08-19T07:29:53;101512.22;;;18.87;86.86
71772;BME280;59606;52.138;5.424;2022-08-19T07:32:21;101505.38;;;18.96;86.52
71772;BME280;59606;52.138;5.424;2022-08-19T07:34:48;101494.31;;;19.02;86.30
71772;BME280;59606;52.138;5.424;2022-08-19T07:37:15;101504.41;;;19.08;86.04
71772;BME280;59606;52.138;5.424;2022-08-19T07:39:42;101509.31;;;19.13;86.12
71772;BME280;59606;52.138;5.424;2022-08-19T07:42:10;101508.94;;;19.17;85.80
71772;BME280;59606;52.138;5.424;2022-08-19T07:44:39;101507.34;;;19.26;85.70
71772;BME280;59606;52.138;5.424;2022-08-19T07:47:11;101503.97;;;19.35;85.41
71772;BME280;59606;52.138;5.424;2022-08-19T07:50:06;101506.63;;;19.35;84.70
71772;BME280;59606;52.138;5.424;2022-08-19T07:52:33;101506.72;;;19.34;84.88
71772;BME280;59606;52.138;5.424;2022-08-19T07:55:00;101515.72;;;19.42;84.76
71772;BME280;59606;52.138;5.424;2022-08-19T07:57:29;101510.06;;;19.47;84.32
71772;BME280;59606;52.138;5.424;2022-08-19T07:59:56;101518.22;;;19.44;84.62
71772;BME280;59606;52.138;5.424;2022-08-19T08:02:22;101519.66;;;19.48;84.71
71772;BME280;59606;52.138;5.424;2022-08-19T08:04:49;101524.44;;;19.54;83.71
71772;BME280;59606;52.138;5.424;2022-08-19T08:07:35;101528.50;;;19.58;83.29
71772;BME280;59606;52.138;5.424;2022-08-19T08:10:19;101525.97;;;19.68;82.54
71772;BME280;59606;52.138;5.424;2022-08-19T08:12:49;101531.25;;;19.79;82.84
71772;BME280;59606;52.138;5.424;2022-08-19T08:15:36;101536.84;;;19.86;81.46
71772;BME280;59606;52.138;5.424;2022-08-19T08:18:08;101544.91;;;19.84;81.35
71772;BME280;59606;52.138;5.424;2022-08-19T08:20:35;101536.13;;;19.84;81.54
71772;BME280;59606;52.138;5.424;2022-08-19T08:23:01;101540.66;;;19.93;81.51
71772;BME280;59606;52.138;5.424;2022-08-19T08:25:46;101536.47;;;20.11;82.31
71772;BME280;59606;52.138;5.424;2022-08-19T08:28:15;101536.59;;;20.10;80.82
71772;BME280;59606;52.138;5.424;2022-08-19T08:30:43;101546.03;;;20.02;81.30
71772;BME280;59606;52.138;5.424;2022-08-19T08:33:13;101557.69;;;20.00;80.29
71772;BME280;59606;52.138;5.424;2022-08-19T08:35:45;101560.44;;;19.98;80.37
71772;BME280;59606;52.138;5.424;2022-08-19T08:38:12;101566.59;;;19.99;79.03
71772;BME280;59606;52.138;5.424;2022-08-19T08:40:50;101563.44;;;20.05;79.45
71772;BME280;59606;52.138;5.424;2022-08-19T08:46:06;101570.59;;;20.35;78.63
71772;BME280;59606;52.138;5.424;2022-08-19T08:48:44;101560.31;;;20.53;78.35
71772;BME280;59606;52.138;5.424;2022-08-19T08:51:22;101571.13;;;20.71;77.98
71772;BME280;59606;52.138;5.424;2022-08-19T08:53:56;101563.78;;;20.84;77.70
71772;BME280;59606;52.138;5.424;2022-08-19T08:56:23;101561.75;;;20.98;76.36
71772;BME280;59606;52.138;5.424;2022-08-19T08:59:03;101568.63;;;21.10;76.50
71772;BME280;59606;52.138;5.424;2022-08-19T09:01:34;101556.50;;;21.17;74.48
71772;BME280;59606;52.138;5.424;2022-08-19T09:04:04;101565.72;;;21.23;75.95
71772;BME280;59606;52.138;5.424;2022-08-19T09:06:55;101559.69;;;21.51;75.58
71772;BME280;59606;52.138;5.424;2022-08-19T09:09:39;101544.34;;;21.74;73.94
71772;BME280;59606;52.138;5.424;2022-08-19T09:14:54;101555.06;;;22.02;71.27
71772;BME280;59606;52.138;5.424;2022-08-19T09:17:26;101556.47;;;22.16;70.44
71772;BME280;59606;52.138;5.424;2022-08-19T09:20:18;101550.44;;;22.33;71.86
71772;BME280;59606;52.138;5.424;2022-08-19T09:22:45;101556.69;;;22.51;70.85
71772;BME280;59606;52.138;5.424;2022-08-19T09:25:15;101559.00;;;22.74;69.83
71772;BME280;59606;52.138;5.424;2022-08-19T09:27:50;101560.19;;;22.89;68.49
71772;BME280;59606;52.138;5.424;2022-08-19T09:30:30;101558.00;;;23.12;68.58
71772;BME280;59606;52.138;5.424;2022-08-19T09:32:57;101558.47;;;23.25;69.23
71772;BME280;59606;52.138;5.424;2022-08-19T09:35:26;101548.38;;;23.47;68.35
71772;BME280;59606;52.138;5.424;2022-08-19T09:37:55;101553.28;;;23.51;66.67
71772;BME280;59606;52.138;5.424;2022-08-19T09:40:26;101555.78;;;23.53;66.20
71772;BME280;59606;52.138;5.424;2022-08-19T09:42:55;101563.91;;;23.51;65.10
71772;BME280;59606;52.138;5.424;2022-08-19T09:45:23;101556.91;;;23.50;65.47
71772;BME280;59606;52.138;5.424;2022-08-19T09:47:51;101549.84;;;23.41;65.56
71772;BME280;59606;52.138;5.424;2022-08-19T09:50:21;101555.53;;;23.46;65.50
71772;BME280;59606;52.138;5.424;2022-08-19T09:52:48;101551.69;;;23.59;64.49
71772;BME280;59606;52.138;5.424;2022-08-19T09:55:22;101548.38;;;23.74;64.82
71772;BME280;59606;52.138;5.424;2022-08-19T09:57:49;101554.06;;;23.80;64.03
71772;BME280;59606;52.138;5.424;2022-08-19T10:00:15;101549.66;;;23.88;64.02
71772;BME280;59606;52.138;5.424;2022-08-19T10:02:42;101561.78;;;23.91;63.82
71772;BME280;59606;52.138;5.424;2022-08-19T10:05:11;101548.91;;;24.04;62.97
71772;BME280;59606;52.138;5.424;2022-08-19T10:07:56;101553.19;;;24.15;62.67
71772;BME280;59606;52.138;5.424;2022-08-19T10:10:23;101556.81;;;24.14;61.15
71772;BME280;59606;52.138;5.424;2022-08-19T10:12:50;101553.75;;;23.83;62.74
71772;BME280;59606;52.138;5.424;2022-08-19T10:15:16;101557.53;;;23.80;65.83
71772;BME280;59606;52.138;5.424;2022-08-19T10:17:54;101561.34;;;23.95;62.97
71772;BME280;59606;52.138;5.424;2022-08-19T10:20:21;101554.97;;;23.88;63.24
71772;BME280;59606;52.138;5.424;2022-08-19T10:22:49;101555.13;;;23.87;62.66
71772;BME280;59606;52.138;5.424;2022-08-19T10:25:18;101549.44;;;23.82;62.26
71772;BME280;59606;52.138;5.424;2022-08-19T10:27:45;101547.28;;;23.85;63.17
71772;BME280;59606;52.138;5.424;2022-08-19T10:30:17;101554.00;;;24.15;61.21
71772;BME280;59606;52.138;5.424;2022-08-19T10:32:45;101546.97;;;24.32;60.54
71772;BME280;59606;52.138;5.424;2022-08-19T10:35:13;101550.09;;;24.28;60.77
71772;BME280;59606;52.138;5.424;2022-08-19T10:37:47;101554.44;;;24.29;60.82
71772;BME280;59606;52.138;5.424;2022-08-19T10:40:22;101552.91;;;24.26;61.33
71772;BME280;59606;52.138;5.424;2022-08-19T10:42:49;101551.41;;;24.23;61.28
71772;BME280;59606;52.138;5.424;2022-08-19T10:45:16;101538.50;;;24.37;62.17
71772;BME280;59606;52.138;5.424;2022-08-19T10:47:43;101547.25;;;24.47;60.14
71772;BME280;59606;52.138;5.424;2022-08-19T10:50:09;101540.47;;;24.53;61.79
71772;BME280;59606;52.138;5.424;2022-08-19T10:52:55;101538.84;;;24.60;61.26
71772;BME280;59606;52.138;5.424;2022-08-19T10:55:23;101537.56;;;24.72;60.32
71772;BME280;59606;52.138;5.424;2022-08-19T10:58:11;101545.53;;;25.06;60.66
71772;BME280;59606;52.138;5.424;2022-08-19T11:00:38;101534.66;;;25.00;60.37
71772;BME280;59606;52.138;5.424;2022-08-19T11:03:06;101533.59;;;24.76;59.81
71772;BME280;59606;52.138;5.424;2022-08-19T11:05:34;101529.09;;;24.77;60.66
71772;BME280;59606;52.138;5.424;2022-08-19T11:08:06;101533.91;;;24.81;60.80
71772;BME280;59606;52.138;5.424;2022-08-19T11:10:51;101535.81;;;24.89;61.59
71772;BME280;59606;52.138;5.424;2022-08-19T11:13:19;101530.94;;;25.19;61.35
71772;BME280;59606;52.138;5.424;2022-08-19T11:15:46;101527.63;;;25.33;60.70
71772;BME280;59606;52.138;5.424;2022-08-19T11:18:13;101525.50;;;25.53;59.36
71772;BME280;59606;52.138;5.424;2022-08-19T11:20:40;101522.66;;;25.62;57.95
71772;BME280;59606;52.138;5.424;2022-08-19T11:23:06;101519.84;;;25.72;60.17
71772;BME280;59606;52.138;5.424;2022-08-19T11:25:33;101524.66;;;25.69;60.87
71772;BME280;59606;52.138;5.424;2022-08-19T11:28:00;101527.34;;;25.85;59.46
71772;BME280;59606;52.138;5.424;2022-08-19T11:30:27;101521.84;;;25.86;60.05
71772;BME280;59606;52.138;5.424;2022-08-19T11:32:54;101518.84;;;26.06;59.16
71772;BME280;59606;52.138;5.424;2022-08-19T11:35:20;101504.59;;;26.22;58.57
71772;BME280;59606;52.138;5.424;2022-08-19T11:37:47;101506.72;;;26.43;58.79
71772;BME280;59606;52.138;5.424;2022-08-19T11:40:13;101510.56;;;26.40;57.24
71772;BME280;59606;52.138;5.424;2022-08-19T11:42:40;101502.41;;;26.33;57.56
71772;BME280;59606;52.138;5.424;2022-08-19T11:45:27;101510.41;;;26.50;57.05
71772;BME280;59606;52.138;5.424;2022-08-19T11:47:54;101503.38;;;26.49;56.88
71772;BME280;59606;52.138;5.424;2022-08-19T11:50:21;101505.97;;;26.73;55.92
71772;BME280;59606;52.138;5.424;2022-08-19T11:52:50;101507.56;;;26.51;56.46
71772;BME280;59606;52.138;5.424;2022-08-19T11:55:17;101511.06;;;26.36;57.31
71772;BME280;59606;52.138;5.424;2022-08-19T11:57:44;101505.63;;;26.21;57.74
71772;BME280;59606;52.138;5.424;2022-08-19T12:00:11;101503.06;;;26.36;58.42
71772;BME280;59606;52.138;5.424;2022-08-19T12:02:40;101507.22;;;26.46;58.33
71772;BME280;59606;52.138;5.424;2022-08-19T12:05:07;101503.56;;;26.39;57.05
71772;BME280;59606;52.138;5.424;2022-08-19T12:07:38;101498.53;;;26.44;57.70
71772;BME280;59606;52.138;5.424;2022-08-19T12:10:06;101504.56;;;26.38;56.67
71772;BME280;59606;52.138;5.424;2022-08-19T12:12:33;101516.47;;;26.11;59.23
71772;BME280;59606;52.138;5.424;2022-08-19T12:15:00;101518.84;;;25.98;58.79
71772;BME280;59606;52.138;5.424;2022-08-19T12:17:26;101509.66;;;25.92;59.16
71772;BME280;59606;52.138;5.424;2022-08-19T12:19:53;101518.47;;;25.68;59.89
71772;BME280;59606;52.138;5.424;2022-08-19T12:22:20;101530.47;;;25.48;60.41
71772;BME280;59606;52.138;5.424;2022-08-19T12:24:50;101529.59;;;25.23;61.52
71772;BME280;59606;52.138;5.424;2022-08-19T12:27:18;101523.84;;;25.01;62.54
71772;BME280;59606;52.138;5.424;2022-08-19T12:30:07;101522.66;;;24.96;62.63
71772;BME280;59606;52.138;5.424;2022-08-19T12:32:35;101521.97;;;24.93;63.62
71772;BME280;59606;52.138;5.424;2022-08-19T12:35:01;101526.78;;;24.82;63.23
71772;BME280;59606;52.138;5.424;2022-08-19T12:37:30;101519.69;;;24.64;63.71
71772;BME280;59606;52.138;5.424;2022-08-19T12:39:58;101521.31;;;24.49;64.13
71772;BME280;59606;52.138;5.424;2022-08-19T12:42:25;101518.84;;;24.38;65.26
71772;BME280;59606;52.138;5.424;2022-08-19T12:44:52;101521.69;;;24.36;65.48
71772;BME280;59606;52.138;5.424;2022-08-19T12:47:19;101525.19;;;24.37;65.45
71772;BME280;59606;52.138;5.424;2022-08-19T12:49:48;101530.50;;;24.37;65.78
71772;BME280;59606;52.138;5.424;2022-08-19T12:52:20;101522.09;;;24.41;66.41
71772;BME280;59606;52.138;5.424;2022-08-19T12:54:49;101528.97;;;24.52;66.21
71772;BME280;59606;52.138;5.424;2022-08-19T12:57:21;101518.03;;;24.63;65.48
71772;BME280;59606;52.138;5.424;2022-08-19T12:59:57;101516.47;;;24.87;66.38
71772;BME280;59606;52.138;5.424;2022-08-19T13:02:24;101514.22;;;25.08;64.58
71772;BME280;59606;52.138;5.424;2022-08-19T13:04:50;101511.22;;;25.11;64.96
71772;BME280;59606;52.138;5.424;2022-08-19T13:07:17;101502.75;;;25.16;64.98
71772;BME280;59606;52.138;5.424;2022-08-19T13:09:43;101514.25;;;25.16;64.02
71772;BME280;59606;52.138;5.424;2022-08-19T13:12:10;101517.84;;;24.99;63.70